createdAt,value
2022-12-03T00:00:46.158Z,6.65
2022-12-03T00:03:14.693Z,6.35
2022-12-03T00:05:48.856Z,5.80
2022-12-03T00:08:18.056Z,5.93
2022-12-03T00:10:47.636Z,4.88
2022-12-03T00:13:15.679Z,6.93
2022-12-03T00:15:43.663Z,4.53
2022-12-03T00:18:12.304Z,7.53
2022-12-03T00:20:40.305Z,6.88
2022-12-03T00:23:08.451Z,7.40
2022-12-03T00:25:36.499Z,6.55
2022-12-03T00:28:06.160Z,8.05
2022-12-03T00:30:34.463Z,7.05
2022-12-03T00:33:02.839Z,8.45
2022-12-03T00:35:31.385Z,7.50
2022-12-03T00:37:59.534Z,7.35
2022-12-03T00:40:27.710Z,7.95
2022-12-03T00:42:55.686Z,8.02
2022-12-03T00:45:25.217Z,9.15
2022-12-03T00:47:53.495Z,6.82
2022-12-03T00:50:21.799Z,7.00
2022-12-03T00:52:50.240Z,7.47
2022-12-03T00:55:18.842Z,6.93
2022-12-03T00:57:47.230Z,6.45
2022-12-03T01:00:16.904Z,6.00
2022-12-03T01:02:46.579Z,6.45
2022-12-03T01:05:14.696Z,6.53
2022-12-03T01:07:42.854Z,5.88
2022-12-03T01:10:11.996Z,7.00
2022-12-03T01:12:40.348Z,5.97
2022-12-03T01:15:09.607Z,5.35
2022-12-03T01:17:38.219Z,6.00
2022-12-03T01:20:10.027Z,6.63
2022-12-03T01:22:38.538Z,5.03
2022-12-03T01:25:07.509Z,6.75
2022-12-03T01:27:35.416Z,5.43
2022-12-03T01:30:03.384Z,5.32
2022-12-03T01:32:30.292Z,4.30
2022-12-03T01:34:58.321Z,5.13
2022-12-03T01:37:28.667Z,5.63
2022-12-03T01:39:56.596Z,5.10
2022-12-03T01:42:26.879Z,7.25
2022-12-03T01:44:57.193Z,6.38
2022-12-03T01:47:28.569Z,6.97
2022-12-03T01:50:00.973Z,6.70
2022-12-03T01:52:33.398Z,5.80
2022-12-03T01:55:03.394Z,6.55
2022-12-03T01:57:36.476Z,6.07
2022-12-03T02:00:05.693Z,4.72
2022-12-03T02:02:34.470Z,6.28
2022-12-03T02:05:07.884Z,7.18
2022-12-03T02:07:37.298Z,6.50
2022-12-03T02:10:06.084Z,5.50
2022-12-03T02:12:37.853Z,7.53
2022-12-03T02:15:08.198Z,9.48
2022-12-03T02:17:37.138Z,7.57
2022-12-03T02:20:07.770Z,7.03
2022-12-03T02:22:44.377Z,6.45
2022-12-03T02:25:25.656Z,6.53
2022-12-03T02:27:55.154Z,8.98
2022-12-03T02:30:24.968Z,7.97
2022-12-03T02:32:54.238Z,8.35
2022-12-03T02:35:24.278Z,7.43
2022-12-03T02:37:59.311Z,5.97
2022-12-03T02:40:32.164Z,6.88
2022-12-03T02:43:01.347Z,5.88
2022-12-03T02:45:32.637Z,5.97
2022-12-03T02:48:04.252Z,6.90
2022-12-03T02:50:34.920Z,7.80
2022-12-03T02:53:06.707Z,5.07
2022-12-03T02:55:37.671Z,7.18
2022-12-03T02:58:06.677Z,4.93
2022-12-03T03:00:36.359Z,7.75
2022-12-03T03:03:06.011Z,6.00
2022-12-03T03:05:36.968Z,7.88
2022-12-03T03:08:06.567Z,5.95
2022-12-03T03:10:38.800Z,6.00
2022-12-03T03:13:11.363Z,6.43
2022-12-03T03:15:40.518Z,5.88
2022-12-03T03:18:10.068Z,6.22
2022-12-03T03:20:38.721Z,5.45
2022-12-03T03:23:14.161Z,8.15
2022-12-03T03:25:47.676Z,4.63
2022-12-03T03:28:16.969Z,5.07
2022-12-03T03:30:45.380Z,5.70
2022-12-03T03:33:14.526Z,5.70
2022-12-03T03:35:44.411Z,4.30
2022-12-03T03:38:12.942Z,5.80
2022-12-03T03:40:41.256Z,5.45
2022-12-03T03:43:11.637Z,6.80
2022-12-03T03:45:40.220Z,4.20
2022-12-03T03:48:08.469Z,6.20
2022-12-03T03:50:36.968Z,4.47
2022-12-03T03:53:06.447Z,3.25
2022-12-03T03:55:35.085Z,5.63
2022-12-03T03:58:03.239Z,4.88
2022-12-03T04:00:33.238Z,4.13
2022-12-03T04:03:01.552Z,4.95
2022-12-03T04:05:29.649Z,4.47
2022-12-03T04:07:58.898Z,3.80
2022-12-03T04:10:44.798Z,3.90
2022-12-03T04:13:13.253Z,3.67
2022-12-03T04:15:42.823Z,4.53
2022-12-03T04:18:28.491Z,4.93
2022-12-03T04:21:17.267Z,5.03
2022-12-03T04:23:44.567Z,4.60
2022-12-03T04:26:29.966Z,3.92
2022-12-03T04:28:58.093Z,4.03
2022-12-03T04:31:45.052Z,5.07
2022-12-03T04:34:30.651Z,3.97
2022-12-03T04:36:59.295Z,3.75
2022-12-03T04:39:27.464Z,4.88
2022-12-03T04:41:55.601Z,3.63
2022-12-03T04:44:38.876Z,4.38
2022-12-03T04:47:10.791Z,4.03
2022-12-03T04:49:41.175Z,5.50
2022-12-03T04:52:09.891Z,4.05
2022-12-03T04:54:38.822Z,3.42
2022-12-03T04:57:07.948Z,3.05
2022-12-03T04:59:36.366Z,4.00
2022-12-03T05:02:06.096Z,2.42
2022-12-03T05:04:35.875Z,3.38
2022-12-03T05:07:04.082Z,2.30
2022-12-03T05:09:33.595Z,2.55
2022-12-03T05:12:01.775Z,3.05
2022-12-03T05:14:29.984Z,4.75
2022-12-03T05:16:58.260Z,5.65
2022-12-03T05:19:46.688Z,5.43
2022-12-03T05:22:15.102Z,6.00
2022-12-03T05:24:43.347Z,6.72
2022-12-03T05:27:11.296Z,5.80
2022-12-03T05:29:39.260Z,5.80
2022-12-03T05:32:07.664Z,6.88
2022-12-03T05:34:35.587Z,5.80
2022-12-03T05:37:03.484Z,6.65
2022-12-03T05:39:33.063Z,8.35
2022-12-03T05:42:18.464Z,6.47
2022-12-03T05:44:46.502Z,6.75
2022-12-03T05:47:14.541Z,9.35
2022-12-03T05:49:42.535Z,7.95
2022-12-03T05:52:10.403Z,10.25
2022-12-03T05:54:39.858Z,8.50
2022-12-03T05:57:08.116Z,9.00
2022-12-03T05:59:36.132Z,10.93
2022-12-03T06:02:04.191Z,8.32
2022-12-03T06:04:32.319Z,10.50
2022-12-03T06:07:00.374Z,10.75
2022-12-03T06:09:28.525Z,6.90
2022-12-03T06:11:57.796Z,9.13
2022-12-03T06:14:25.944Z,8.48
2022-12-03T06:16:54.132Z,9.35
2022-12-03T06:19:22.182Z,12.05
2022-12-03T06:21:50.112Z,8.40
2022-12-03T06:24:17.946Z,9.38
2022-12-03T06:26:46.035Z,9.55
2022-12-03T06:29:15.533Z,10.25
2022-12-03T06:31:43.523Z,11.15
2022-12-03T06:34:11.637Z,7.68
2022-12-03T06:36:39.640Z,9.52
2022-12-03T06:39:07.783Z,11.52
2022-12-03T06:41:36.090Z,10.73
2022-12-03T06:44:04.181Z,9.63
2022-12-03T06:46:33.627Z,11.93
2022-12-03T06:49:01.762Z,10.02
2022-12-03T06:51:29.735Z,10.00
2022-12-03T06:53:57.684Z,10.98
2022-12-03T06:56:31.102Z,9.38
2022-12-03T06:59:02.491Z,9.55
2022-12-03T07:01:30.715Z,11.00
2022-12-03T07:04:00.144Z,11.73
2022-12-03T07:06:28.051Z,11.02
2022-12-03T07:08:56.117Z,9.95
2022-12-03T07:11:32.852Z,9.82
2022-12-03T07:14:05.479Z,10.13
2022-12-03T07:16:34.782Z,11.20
2022-12-03T07:19:05.085Z,9.63
2022-12-03T07:21:33.503Z,9.68
2022-12-03T07:24:01.968Z,10.95
2022-12-03T07:26:29.957Z,10.32
2022-12-03T07:28:58.235Z,9.98
2022-12-03T07:31:26.772Z,10.20
2022-12-03T07:33:56.485Z,8.82
2022-12-03T07:36:26.439Z,11.45
2022-12-03T07:38:54.787Z,11.07
2022-12-03T07:41:22.928Z,10.82
2022-12-03T07:43:51.186Z,10.07
2022-12-03T07:46:20.432Z,11.25
2022-12-03T07:48:57.226Z,10.52
2022-12-03T07:51:44.613Z,10.30
2022-12-03T07:54:15.975Z,11.90
2022-12-03T07:56:51.041Z,11.32
2022-12-03T07:59:21.221Z,12.13
2022-12-03T08:01:49.658Z,11.70
2022-12-03T08:04:22.863Z,11.45
2022-12-03T08:06:52.532Z,11.73
2022-12-03T08:09:21.306Z,9.98
2022-12-03T08:11:51.308Z,11.30
2022-12-03T08:14:21.569Z,10.25
2022-12-03T08:16:50.330Z,11.73
2022-12-03T08:19:19.698Z,10.30
2022-12-03T08:21:48.617Z,11.55
2022-12-03T08:24:21.649Z,11.77
2022-12-03T08:26:50.903Z,11.65
2022-12-03T08:29:21.107Z,11.45
2022-12-03T08:31:52.288Z,10.38
2022-12-03T08:34:22.524Z,9.63
2022-12-03T08:36:53.422Z,11.20
2022-12-03T08:39:34.315Z,12.55
2022-12-03T08:42:30.907Z,12.73
2022-12-03T08:45:17.733Z,13.07
2022-12-03T08:47:45.990Z,10.95
2022-12-03T08:50:28.330Z,11.57
2022-12-03T08:53:00.910Z,12.02
2022-12-03T08:55:36.937Z,12.70
2022-12-03T08:58:19.690Z,11.60
2022-12-03T09:00:48.409Z,12.18
2022-12-03T09:03:20.012Z,11.23
2022-12-03T09:05:48.085Z,11.20
2022-12-03T09:08:16.471Z,12.30
2022-12-03T09:10:45.955Z,11.75
2022-12-03T09:13:14.003Z,11.90
2022-12-03T09:15:42.470Z,15.48
2022-12-03T09:18:10.540Z,14.23
2022-12-03T09:20:38.556Z,12.52
2022-12-03T09:23:06.841Z,13.35
2022-12-03T09:25:34.846Z,10.80
2022-12-03T09:28:04.502Z,11.57
2022-12-03T09:30:33.562Z,13.65
2022-12-03T09:33:01.444Z,14.00
2022-12-03T09:35:29.339Z,12.95
2022-12-03T09:37:57.222Z,14.63
2022-12-03T09:40:25.390Z,13.35
2022-12-03T09:42:53.336Z,11.95
2022-12-03T09:45:22.698Z,13.65
2022-12-03T09:47:51.403Z,11.10
2022-12-03T09:50:23.093Z,11.52
2022-12-03T09:52:54.790Z,11.85
2022-12-03T09:55:25.237Z,14.82
2022-12-03T09:57:53.778Z,12.95
2022-12-03T10:00:25.605Z,13.98
2022-12-03T10:02:56.099Z,12.05
2022-12-03T10:05:24.887Z,14.82
2022-12-03T10:07:54.077Z,12.88
2022-12-03T10:10:25.274Z,14.70
2022-12-03T10:12:54.549Z,11.30
2022-12-03T10:15:27.241Z,11.77
2022-12-03T10:17:57.244Z,13.65
2022-12-03T10:20:27.415Z,13.25
2022-12-03T10:23:01.180Z,13.80
2022-12-03T10:25:29.535Z,13.45
2022-12-03T10:28:00.184Z,13.70
2022-12-03T10:30:30.180Z,12.55
2022-12-03T10:33:02.583Z,13.15
2022-12-03T10:35:39.543Z,13.35
2022-12-03T10:38:08.965Z,14.00
2022-12-03T10:40:39.222Z,12.90
2022-12-03T10:43:33.503Z,14.57
2022-12-03T10:46:13.985Z,13.32
2022-12-03T10:49:07.072Z,13.65
2022-12-03T10:51:35.260Z,13.55
2022-12-03T10:54:05.562Z,13.25
2022-12-03T10:56:33.737Z,13.55
2022-12-03T10:59:01.802Z,14.30
2022-12-03T11:01:33.136Z,14.50
2022-12-03T11:04:06.960Z,13.10
2022-12-03T11:06:35.131Z,13.80
2022-12-03T11:09:08.808Z,12.73
2022-12-03T11:11:37.392Z,14.57
2022-12-03T11:14:05.845Z,14.77
2022-12-03T11:17:07.646Z,13.65
2022-12-03T11:20:01.348Z,13.10
2022-12-03T11:22:41.225Z,14.32
2022-12-03T11:26:13.038Z,15.10
2022-12-03T11:29:03.505Z,12.88
2022-12-03T11:38:53.000Z,12.02
2022-12-03T22:21:34.111Z,12.20
2022-12-03T22:24:04.753Z,12.05
2022-12-03T22:26:36.007Z,11.65
